Time;durP1;ratioP1;P1;durP2;ratioP2;P2;SDS_P1;SDS_P2;PMS_P1;PMS_P2;Temp;Humidity;BMP_temperature;BMP_pressure;BME280_temperature;BME280_humidity;BME280_pressure;Samples;Min_cycle;Max_cycle;Signal;HPM_P1;HPM_P2
2021/07/13 00:00:00;;;;;;;77.35;42.65;;;;;;;15.93;nan;98750.59;2097481;28;20221;-72
2021/07/13 00:01:01;;;;;;;80.30;42.78;;;;;;;15.93;nan;98751.38;2097639;28;20581;-72
2021/07/13 00:02:03;;;;;;;74.25;42.38;;;;;;;15.92;nan;98746.31;2097576;28;20221;-72
2021/07/13 00:03:06;;;;;;;86.30;44.47;;;;;;;15.90;nan;98741.28;2097488;28;20220;-72
2021/07/13 00:04:07;;;;;;;81.10;42.97;;;;;;;15.93;nan;98751.38;2096677;28;20221;-72
2021/07/13 00:05:12;;;;;;;78.68;42.72;;;;;;;15.93;nan;98742.50;2096810;28;20301;-72
2021/07/13 00:06:13;;;;;;;85.70;45.17;;;;;;;15.92;nan;98738.25;2096820;28;20222;-72
2021/07/13 00:07:14;;;;;;;87.30;43.70;;;;;;;15.93;nan;98742.50;2096615;28;20221;-72
2021/07/13 00:08:15;;;;;;;89.45;45.05;;;;;;;15.90;nan;98733.22;2097474;28;20672;-71
2021/07/13 00:09:19;;;;;;;108.13;47.10;;;;;;;15.92;nan;98735.56;2097547;28;20641;-72
2021/07/13 00:10:21;;;;;;;86.35;45.15;;;;;;;15.92;nan;98736.34;2097497;28;20229;-72
2021/07/13 00:11:23;;;;;;;100.70;45.45;;;;;;;15.92;nan;98732.88;2097010;28;20246;-73
2021/07/13 00:12:24;;;;;;;86.65;45.15;;;;;;;15.90;nan;98735.09;2096737;28;20226;-73
2021/07/13 00:13:25;;;;;;;99.00;45.23;;;;;;;15.92;nan;98735.56;2096706;28;20245;-72
2021/07/13 00:14:27;;;;;;;92.93;47.40;;;;;;;15.91;nan;98734.00;2097210;28;20575;-72
2021/07/13 00:15:34;;;;;;;90.50;44.92;;;;;;;15.88;nan;98731.97;2096611;28;20225;-72
2021/07/13 00:16:35;;;;;;;105.10;45.78;;;;;;;15.86;nan;98736.91;2096554;28;20288;-72
2021/07/13 00:17:36;;;;;;;80.67;43.90;;;;;;;15.81;nan;98727.16;2096713;28;20805;-73
2021/07/13 00:18:38;;;;;;;83.40;44.78;;;;;;;15.82;nan;98723.38;2096943;28;20234;-72
2021/07/13 00:19:39;;;;;;;84.57;44.42;;;;;;;15.82;nan;98717.97;2097442;28;20245;-72
2021/07/13 00:20:40;;;;;;;82.10;44.08;;;;;;;15.81;nan;98727.97;2097197;28;20233;-72
2021/07/13 00:21:42;;;;;;;90.17;45.33;;;;;;;15.79;nan;98715.94;2097370;28;20629;-72
2021/07/13 00:22:43;;;;;;;92.22;46.65;;;;;;;15.78;nan;98720.53;2097379;28;20218;-72
2021/07/13 00:23:45;;;;;;;83.33;44.23;;;;;;;15.78;nan;98723.25;2097306;28;20301;-72
2021/07/13 00:24:45;;;;;;;77.88;42.85;;;;;;;15.77;nan;98718.97;2097512;28;20223;-72
2021/07/13 00:25:47;;;;;;;80.33;44.07;;;;;;;15.77;nan;98724.38;2097335;28;20233;-72
2021/07/13 00:26:48;;;;;;;82.50;43.70;;;;;;;15.77;nan;98724.38;2096751;28;20308;-72
2021/07/13 00:27:49;;;;;;;79.30;43.73;;;;;;;15.81;nan;98727.16;2096662;28;20217;-72
2021/07/13 00:28:50;;;;;;;91.60;44.75;;;;;;;15.81;nan;98719.06;2096553;28;20230;-72
2021/07/13 00:29:52;;;;;;;83.83;45.53;;;;;;;15.80;nan;98723.69;2097282;28;20218;-72
2021/07/13 00:30:54;;;;;;;84.20;43.92;;;;;;;15.79;nan;98710.56;2095961;28;20688;-72
2021/07/13 00:31:55;;;;;;;91.40;43.88;;;;;;;15.76;nan;98706.66;2096387;28;20221;-72
2021/07/13 00:32:56;;;;;;;92.63;43.97;;;;;;;15.76;nan;98706.66;2088112;28;20229;-72
2021/07/13 00:33:58;;;;;;;81.40;44.23;;;;;;;15.78;nan;98703.63;2096478;28;20535;-71
2021/07/13 00:34:59;;;;;;;100.22;45.33;;;;;;;15.78;nan;98709.00;2097096;28;20699;-72
2021/07/13 00:36:01;;;;;;;90.40;44.93;;;;;;;15.76;nan;98706.66;2097211;28;20214;-72
2021/07/13 00:37:01;;;;;;;91.65;45.88;;;;;;;15.75;nan;98701.63;2097303;28;20253;-72
2021/07/13 00:38:04;;;;;;;96.30;44.03;;;;;;;15.75;nan;98698.94;2096311;28;20226;-72
2021/07/13 00:39:04;;;;;;;76.95;44.90;;;;;;;15.73;nan;98701.97;2096560;28;20222;-72
2021/07/13 00:40:07;;;;;;;81.20;43.27;;;;;;;15.76;nan;98701.28;2097160;28;20222;-72
2021/07/13 00:41:08;;;;;;;93.50;45.30;;;;;;;15.75;nan;98702.41;2096039;28;20225;-72
2021/07/13 00:42:13;;;;;;;92.80;45.73;;;;;;;15.72;nan;98703.06;2095783;28;20540;-72
2021/07/13 00:43:14;;;;;;;87.38;44.97;;;;;;;15.70;nan;98702.63;2096495;28;20226;-72
2021/07/13 00:44:18;;;;;;;96.73;46.20;;;;;;;15.71;nan;98706.09;2096480;28;20653;-72
2021/07/13 00:45:19;;;;;;;108.80;47.90;;;;;;;15.71;nan;98701.50;2097101;28;20680;-72
2021/07/13 00:46:22;;;;;;;86.35;46.70;;;;;;;15.72;nan;98705.75;2096359;28;20218;-72
2021/07/13 00:47:25;;;;;;;95.53;46.22;;;;;;;15.74;nan;98710.81;2096058;28;20229;-72
2021/07/13 00:48:27;;;;;;;93.75;47.40;;;;;;;15.73;nan;98712.72;2096965;28;20245;-72
2021/07/13 00:49:27;;;;;;;95.45;47.38;;;;;;;15.76;nan;98705.88;2097151;28;20684;-71
2021/07/13 00:50:29;;;;;;;99.17;48.33;;;;;;;15.77;nan;98705.53;2097027;28;20652;-72
2021/07/13 00:51:30;;;;;;;110.85;47.90;;;;;;;15.76;nan;98709.34;2096285;28;20222;-72
2021/07/13 00:52:32;;;;;;;101.43;47.93;;;;;;;15.73;nan;98704.66;2096417;28;20218;-72
2021/07/13 00:53:32;;;;;;;94.57;47.77;;;;;;;15.72;nan;98700.38;2096202;28;20229;-72
2021/07/13 00:54:36;;;;;;;95.60;47.63;;;;;;;15.71;nan;98698.81;2096372;28;20479;-72
2021/07/13 00:55:37;;;;;;;100.00;48.58;;;;;;;15.71;nan;98695.34;2096786;28;20683;-72
2021/07/13 00:56:40;;;;;;;97.37;48.53;;;;;;;15.71;nan;98692.66;2096204;28;20668;-72
2021/07/13 00:57:41;;;;;;;100.60;47.40;;;;;;;15.69;nan;98698.38;2088424;28;20234;-72
2021/07/13 00:58:43;;;;;;;103.37;47.77;;;;;;;15.69;nan;98698.38;2096364;28;20233;-72
2021/07/13 00:59:44;;;;;;;103.67;51.00;;;;;;;15.68;nan;98698.72;2096368;28;20218;-72
2021/07/13 01:00:46;;;;;;;97.55;47.47;;;;;;;15.66;nan;98691.00;2096528;28;20436;-72
2021/07/13 01:01:49;;;;;;;109.22;50.03;;;;;;;15.65;nan;98694.03;2097094;28;20704;-73
2021/07/13 01:02:53;;;;;;;103.77;49.33;;;;;;;15.66;nan;98691.00;2097092;28;20296;-72
2021/07/13 01:03:54;;;;;;;112.35;49.83;;;;;;;15.67;nan;98691.78;2096711;28;20455;-72
2021/07/13 01:05:00;;;;;;;113.83;48.93;;;;;;;15.68;nan;98693.34;2096973;28;20248;-73
2021/07/13 01:06:00;;;;;;;111.47;49.72;;;;;;;15.71;nan;98698.03;2097041;28;20543;-72
2021/07/13 01:07:05;;;;;;;103.30;48.70;;;;;;;15.70;nan;98697.25;2097050;28;20325;-72
2021/07/13 01:08:22;;;;;;;108.50;49.90;;;;;;;15.69;nan;98700.28;2096214;28;20225;-72
2021/07/13 01:09:35;;;;;;;101.72;48.85;;;;;;;15.72;nan;98695.00;2089475;28;20577;-72
2021/07/13 01:10:44;;;;;;;93.70;47.33;;;;;;;15.73;nan;98685.03;2089779;28;20229;-71
2021/07/13 01:11:48;;;;;;;89.30;47.70;;;;;;;15.82;nan;98693.78;2088752;28;20227;-71
2021/07/13 01:12:58;;;;;;;89.43;48.90;;;;;;;15.88;nan;98705.06;2084190;28;20223;-71
2021/07/13 01:14:04;;;;;;;94.07;49.25;;;;;;;15.88;nan;98707.75;2096013;28;20241;-71
2021/07/13 01:15:07;;;;;;;89.97;49.17;;;;;;;15.89;nan;98699.34;2096097;28;20361;-72
2021/07/13 01:16:14;;;;;;;88.63;49.05;;;;;;;16.01;nan;98703.94;2087766;28;20229;-71
2021/07/13 01:17:21;;;;;;;85.30;47.65;;;;;;;16.13;nan;98703.88;2096156;28;20228;-72
2021/07/13 01:18:25;;;;;;;85.95;48.75;;;;;;;16.17;nan;98699.41;2095783;28;20278;-73
2021/07/13 01:19:53;;;;;;;78.80;49.10;;;;;;;16.10;nan;98696.50;2088301;28;20314;-71
2021/07/13 01:21:05;;;;;;;73.75;46.13;;;;;;;16.09;nan;98690.34;2096061;28;20228;-72
2021/07/13 01:22:09;;;;;;;76.00;47.15;;;;;;;16.14;nan;98689.28;2096864;28;20225;-71
2021/07/13 01:23:17;;;;;;;69.60;45.00;;;;;;;16.14;nan;98689.28;2095702;28;20225;-71
2021/07/13 01:24:36;;;;;;;75.28;44.42;;;;;;;16.10;nan;98693.81;2096185;28;20209;-71
2021/07/13 01:25:42;;;;;;;72.65;45.58;;;;;;;16.17;nan;98691.31;2096307;28;20307;-72
2021/07/13 01:26:50;;;;;;;75.53;45.63;;;;;;;16.08;nan;98688.78;2096924;28;20226;-71
2021/07/13 01:28:07;;;;;;;75.50;45.97;;;;;;;16.27;nan;98690.84;2096426;28;20677;-72
2021/07/13 01:29:10;;;;;;;80.97;46.53;;;;;;;16.27;nan;98685.44;2095872;28;20644;-71
2021/07/13 01:30:14;;;;;;;78.20;46.65;;;;;;;16.35;nan;98689.91;2096837;28;20687;-71
2021/07/13 01:31:17;;;;;;;70.80;44.97;;;;;;;16.28;nan;98684.31;2096957;28;20221;-71
2021/07/13 01:32:21;;;;;;;69.57;44.30;;;;;;;16.18;nan;98684.81;2097007;28;20221;-71
2021/07/13 01:33:24;;;;;;;74.75;45.95;;;;;;;16.13;nan;98686.94;2096023;28;20218;-72
2021/07/13 01:34:29;;;;;;;75.88;45.35;;;;;;;16.13;nan;98681.56;2088138;28;20230;-71
2021/07/13 01:35:35;;;;;;;79.90;46.15;;;;;;;16.09;nan;98692.25;2096212;28;20218;-71
2021/07/13 01:36:41;;;;;;;78.32;44.20;;;;;;;16.03;nan;98677.44;2096970;28;20250;-71
2021/07/13 01:37:44;;;;;;;69.55;42.80;;;;;;;15.98;nan;98685.75;2096508;28;20225;-72
2021/07/13 01:38:46;;;;;;;73.72;44.13;;;;;;;15.94;nan;98685.66;2096798;28;20225;-71
2021/07/13 01:39:49;;;;;;;69.85;45.30;;;;;;;15.88;nan;98678.16;2096023;28;20226;-71
2021/07/13 01:40:55;;;;;;;80.75;46.50;;;;;;;15.88;nan;98681.63;2096227;28;20267;-71
2021/07/13 01:41:59;;;;;;;73.10;44.75;;;;;;;15.90;nan;98681.28;2095736;28;20229;-72
2021/07/13 01:43:00;;;;;;;78.82;46.20;;;;;;;15.86;nan;98678.50;2096226;28;20279;-71
2021/07/13 01:44:03;;;;;;;77.30;45.88;;;;;;;15.82;nan;98678.41;2096822;28;20278;-71
2021/07/13 01:45:05;;;;;;;70.43;44.05;;;;;;;15.82;nan;98683.78;2096790;28;20224;-71
2021/07/13 01:46:07;;;;;;;78.75;46.83;;;;;;;15.79;nan;98680.97;2096727;28;20248;-71
2021/07/13 01:47:10;;;;;;;75.03;45.75;;;;;;;15.77;nan;98675.94;2095489;28;20221;-71
2021/07/13 01:48:11;;;;;;;80.00;46.42;;;;;;;15.74;nan;98679.31;2096125;28;20229;-71
2021/07/13 01:49:16;;;;;;;93.53;48.93;;;;;;;15.72;nan;98678.06;2096861;28;20226;-71
2021/07/13 01:50:17;;;;;;;87.93;48.08;;;;;;;15.77;nan;98681.31;2096742;28;20602;-71
2021/07/13 01:51:19;;;;;;;93.20;49.30;;;;;;;15.81;nan;98684.91;2096856;28;20326;-71
2021/07/13 01:52:20;;;;;;;85.47;47.50;;;;;;;15.80;nan;98686.00;2096752;28;20229;-70
2021/07/13 01:53:23;;;;;;;94.80;47.23;;;;;;;15.78;nan;98685.56;2096350;28;20252;-71
2021/07/13 01:54:26;;;;;;;113.43;50.17;;;;;;;15.75;nan;98688.97;2097413;28;20590;-72
2021/07/13 01:55:28;;;;;;;91.20;49.38;;;;;;;15.74;nan;98689.28;2097716;28;20712;-71
2021/07/13 01:56:29;;;;;;;133.75;50.45;;;;;;;15.72;nan;98688.84;2097701;28;20217;-71
2021/07/13 01:57:31;;;;;;;101.20;49.07;;;;;;;15.69;nan;98678.75;2098531;28;20238;-71
2021/07/13 01:58:32;;;;;;;103.82;49.05;;;;;;;15.65;nan;98683.25;2098440;28;20548;-71
2021/07/13 01:59:35;;;;;;;94.13;49.92;;;;;;;15.65;nan;98689.41;2098475;28;20217;-71
2021/07/13 02:00:37;;;;;;;94.68;49.55;;;;;;;15.61;nan;98685.81;2097948;28;20233;-71
2021/07/13 02:01:39;;;;;;;99.68;49.25;;;;;;;15.60;nan;98683.44;2089321;28;20228;-72
2021/07/13 02:02:43;;;;;;;90.87;47.47;;;;;;;15.58;nan;98686.47;2097683;28;20233;-71
2021/07/13 02:03:46;;;;;;;101.60;49.40;;;;;;;15.55;nan;98681.78;2097496;28;20448;-71
2021/07/13 02:04:47;;;;;;;89.57;47.42;;;;;;;15.63;nan;98686.25;2089532;28;20325;-71
2021/07/13 02:05:49;;;;;;;82.57;46.90;;;;;;;15.72;nan;98681.53;2089263;28;20328;-71
2021/07/13 02:06:50;;;;;;;84.50;49.15;;;;;;;15.80;nan;98679.84;2097641;28;20993;-71
2021/07/13 02:07:55;;;;;;;96.17;50.47;;;;;;;15.78;nan;98682.88;2097609;28;20632;-71
2021/07/13 02:08:58;;;;;;;90.88;49.55;;;;;;;15.80;nan;98680.63;2097290;28;20248;-71
2021/07/13 02:10:00;;;;;;;87.22;46.95;;;;;;;15.82;nan;98673.03;2097612;28;20764;-71
2021/07/13 02:11:01;;;;;;;107.60;47.60;;;;;;;15.85;nan;98678.84;2097642;28;20703;-71
2021/07/13 02:12:04;;;;;;;77.60;44.97;;;;;;;15.76;nan;98685.13;2098417;28;20656;-71
2021/07/13 02:13:07;;;;;;;86.47;48.55;;;;;;;15.71;nan;98681.88;2098384;28;20566;-72
2021/07/13 02:14:10;;;;;;;87.27;49.00;;;;;;;15.67;nan;98686.38;2097924;28;20621;-72
2021/07/13 02:15:12;;;;;;;91.27;49.33;;;;;;;15.63;nan;98688.97;2098354;28;20479;-72
2021/07/13 02:16:14;;;;;;;81.53;46.45;;;;;;;15.73;nan;98685.81;2098338;28;20451;-71
2021/07/13 02:17:15;;;;;;;70.40;45.70;;;;;;;15.79;nan;98683.66;2097414;28;20218;-72
2021/07/13 02:18:16;;;;;;;86.30;47.97;;;;;;;15.79;nan;98691.75;2097645;28;20515;-71
2021/07/13 02:19:17;;;;;;;88.88;50.17;;;;;;;15.74;nan;98687.38;2098324;28;20684;-71
2021/07/13 02:20:20;;;;;;;93.43;48.83;;;;;;;15.69;nan;98684.13;2098179;28;20780;-71
2021/07/13 02:21:22;;;;;;;97.88;52.80;;;;;;;15.68;nan;98685.25;2098236;28;20225;-71
2021/07/13 02:22:24;;;;;;;102.37;53.67;;;;;;;15.71;nan;98685.34;2097852;28;20226;-72
2021/07/13 02:23:25;;;;;;;103.82;55.10;;;;;;;15.73;nan;98690.44;2098210;28;21015;-72
2021/07/13 02:24:27;;;;;;;102.78;53.83;;;;;;;15.70;nan;98691.09;2098260;28;20580;-72
2021/07/13 02:25:27;;;;;;;114.40;56.10;;;;;;;15.72;nan;98696.91;2097464;28;20249;-72
2021/07/13 02:26:34;;;;;;;116.93;55.00;;;;;;;15.76;nan;98695.13;2097564;28;20218;-72
2021/07/13 02:27:36;;;;;;;117.83;56.13;;;;;;;15.73;nan;98690.44;2098329;28;20300;-72
2021/07/13 02:28:39;;;;;;;116.05;54.08;;;;;;;15.71;nan;98696.13;2097833;28;20456;-72
2021/07/13 02:29:42;;;;;;;110.78;52.42;;;;;;;15.66;nan;98684.81;2098181;28;20587;-71
2021/07/13 02:30:48;;;;;;;100.97;53.72;;;;;;;15.64;nan;98690.53;2097752;28;20280;-72
2021/07/13 02:31:53;;;;;;;118.22;55.47;;;;;;;15.64;nan;98693.25;2096948;28;20308;-72
2021/07/13 02:32:59;;;;;;;112.53;54.05;;;;;;;15.62;nan;98692.00;2097321;28;20716;-72
2021/07/13 02:34:04;;;;;;;112.78;55.42;;;;;;;15.59;nan;98690.75;2098255;28;20217;-72
2021/07/13 02:35:06;;;;;;;116.25;53.35;;;;;;;15.62;nan;98690.09;2097447;28;20217;-72
2021/07/13 02:36:12;;;;;;;117.03;54.20;;;;;;;15.61;nan;98690.41;2097157;28;20226;-72
2021/07/13 02:37:16;;;;;;;131.70;57.50;;;;;;;15.57;nan;98695.69;2098068;28;20672;-72
2021/07/13 02:38:19;;;;;;;118.20;56.00;;;;;;;15.56;nan;98691.41;2097711;28;20750;-72
2021/07/13 02:39:22;;;;;;;116.65;56.72;;;;;;;15.55;nan;98708.69;2097503;28;20226;-72
2021/07/13 02:40:22;;;;;;;102.13;53.13;;;;;;;15.58;nan;98702.63;2097776;28;20226;-72
2021/07/13 02:41:24;;;;;;;114.67;56.33;;;;;;;15.70;nan;98702.63;2097384;28;20305;-72
2021/07/13 02:42:28;;;;;;;117.88;55.88;;;;;;;15.66;nan;98701.75;2089172;28;20218;-72
2021/07/13 02:43:30;;;;;;;115.40;57.28;;;;;;;15.67;nan;98706.00;2097563;28;20779;-72
2021/07/13 02:44:33;;;;;;;88.05;50.95;;;;;;;15.73;nan;98696.59;2098104;28;20217;-71
2021/07/13 02:45:35;;;;;;;95.80;53.28;;;;;;;15.91;nan;98702.50;2098016;28;20703;-72
2021/07/13 02:46:41;;;;;;;105.07;55.15;;;;;;;15.97;nan;98695.72;2097559;28;20226;-72
2021/07/13 02:47:44;;;;;;;101.10;54.20;;;;;;;15.99;nan;98703.50;2097037;28;20321;-72
2021/07/13 02:48:45;;;;;;;112.30;54.72;;;;;;;15.93;nan;98705.63;2097248;28;20228;-72
2021/07/13 02:49:48;;;;;;;107.78;54.10;;;;;;;15.90;nan;98708.19;2097449;28;20225;-72
2021/07/13 02:50:52;;;;;;;98.93;52.45;;;;;;;15.88;nan;98708.53;2097558;28;20271;-72
2021/07/13 02:51:55;;;;;;;98.75;52.53;;;;;;;15.85;nan;98709.22;2097104;28;20263;-73
2021/07/13 02:52:56;;;;;;;90.93;53.25;;;;;;;15.90;nan;98705.50;2097413;28;20221;-71
2021/07/13 02:53:58;;;;;;;103.45;56.53;;;;;;;15.91;nan;98707.88;2097369;28;20238;-72
2021/07/13 02:55:01;;;;;;;87.63;52.42;;;;;;;15.97;nan;98711.09;2097947;28;20234;-72
2021/07/13 02:56:04;;;;;;;119.03;57.97;;;;;;;16.04;nan;98706.72;2097566;28;20228;-72
2021/07/13 02:57:05;;;;;;;109.50;57.53;;;;;;;16.06;nan;98709.06;2097368;28;20234;-72
2021/07/13 02:58:07;;;;;;;94.33;52.53;;;;;;;16.07;nan;98700.66;2098099;28;20242;-72
2021/07/13 02:59:09;;;;;;;108.38;56.33;;;;;;;16.07;nan;98710.63;2097673;28;20229;-73
2021/07/13 03:00:13;;;;;;;99.55;55.13;;;;;;;16.04;nan;98711.31;2098033;28;20684;-72
2021/07/13 03:01:13;;;;;;;100.23;54.67;;;;;;;16.01;nan;98707.41;2098104;28;20617;-72
2021/07/13 03:02:17;;;;;;;100.80;55.23;;;;;;;16.00;nan;98707.75;2097145;28;20444;-72
2021/07/13 03:03:18;;;;;;;100.03;56.63;;;;;;;15.99;nan;98704.28;2089109;28;20215;-72
2021/07/13 03:04:20;;;;;;;101.30;52.87;;;;;;;16.01;nan;98712.78;2097333;28;20524;-72
2021/07/13 03:05:23;;;;;;;108.40;53.97;;;;;;;16.01;nan;98703.94;2097083;28;20218;-72
2021/07/13 03:06:24;;;;;;;104.93;54.63;;;;;;;16.05;nan;98715.56;2096621;28;20453;-72
2021/07/13 03:07:26;;;;;;;98.15;52.78;;;;;;;16.06;nan;98711.75;2097309;28;20233;-72
2021/07/13 03:08:27;;;;;;;98.77;54.00;;;;;;;16.21;nan;98708.34;2097967;28;20229;-72
2021/07/13 03:09:28;;;;;;;106.57;55.47;;;;;;;16.14;nan;98710.81;2098003;28;20451;-72
2021/07/13 03:10:31;;;;;;;94.77;52.57;;;;;;;16.14;nan;98707.34;2097995;28;20242;-71
2021/07/13 03:11:33;;;;;;;103.43;54.33;;;;;;;16.16;nan;98703.22;2098013;28;20476;-72
2021/07/13 03:12:35;;;;;;;96.50;54.03;;;;;;;16.14;nan;98707.34;2097857;28;20625;-72
2021/07/13 03:13:36;;;;;;;119.97;56.38;;;;;;;16.14;nan;98707.34;2097756;28;20230;-72
2021/07/13 03:14:39;;;;;;;113.20;56.23;;;;;;;16.13;nan;98705.78;2096738;28;20230;-73
2021/07/13 03:15:42;;;;;;;103.57;53.37;;;;;;;16.12;nan;98702.31;2097049;28;20472;-71
2021/07/13 03:16:44;;;;;;;92.88;50.83;;;;;;;16.16;nan;98705.91;2097863;28;20444;-72
2021/07/13 03:17:46;;;;;;;106.00;54.40;;;;;;;16.21;nan;98708.34;2097907;28;20746;-72
2021/07/13 03:18:48;;;;;;;85.00;49.22;;;;;;;16.34;nan;98707.19;2097950;28;20966;-71
2021/07/13 03:19:49;;;;;;;103.90;53.13;;;;;;;16.31;nan;98701.69;2097930;28;20225;-72
2021/07/13 03:20:53;;;;;;;89.03;52.10;;;;;;;16.35;nan;98705.28;2096871;28;20978;-72
2021/07/13 03:21:56;;;;;;;105.32;54.65;;;;;;;16.38;nan;98701.91;2096868;28;20510;-72
2021/07/13 03:22:57;;;;;;;96.57;53.20;;;;;;;16.39;nan;98706.94;2098046;28;20676;-72
2021/07/13 03:24:03;;;;;;;109.57;54.13;;;;;;;16.40;nan;98702.31;2097414;28;20445;-72
2021/07/13 03:25:05;;;;;;;105.30;55.00;;;;;;;16.36;nan;98699.53;2089282;28;20472;-72
2021/07/13 03:26:07;;;;;;;101.80;55.60;;;;;;;16.36;nan;98707.63;2097090;28;20636;-72
2021/07/13 03:27:08;;;;;;;86.73;51.33;;;;;;;16.46;nan;98702.88;2096798;28;20468;-71
2021/07/13 03:28:11;;;;;;;107.97;54.90;;;;;;;16.45;nan;98704.00;2096938;28;20494;-72
2021/07/13 03:29:13;;;;;;;91.43;52.87;;;;;;;16.43;nan;98707.03;2097159;28;20998;-71
2021/07/13 03:30:15;;;;;;;91.43;53.57;;;;;;;16.38;nan;98710.75;2097881;28;20531;-72
2021/07/13 03:31:16;;;;;;;94.47;53.50;;;;;;;16.37;nan;98714.56;2096984;28;20440;-72
2021/07/13 03:32:19;;;;;;;88.50;51.93;;;;;;;16.42;nan;98718.13;2088722;28;20536;-72
2021/07/13 03:33:21;;;;;;;96.77;53.87;;;;;;;16.56;nan;98710.47;2096976;28;20221;-72
2021/07/13 03:34:23;;;;;;;89.83;55.10;;;;;;;16.56;nan;98707.75;2097481;28;20455;-73
2021/07/13 03:35:25;;;;;;;80.38;50.83;;;;;;;16.63;nan;98710.66;2097621;28;20479;-72
2021/07/13 03:36:27;;;;;;;94.70;54.80;;;;;;;16.71;nan;98712.44;2097776;28;20229;-72
2021/07/13 03:37:28;;;;;;;100.53;55.40;;;;;;;16.68;nan;98715.81;2097836;28;20449;-72
2021/07/13 03:38:30;;;;;;;102.80;54.50;;;;;;;16.65;nan;98708.38;2097791;28;20461;-72
2021/07/13 03:39:31;;;;;;;94.30;54.73;;;;;;;16.62;nan;98703.69;2097672;28;20245;-72
2021/07/13 03:40:33;;;;;;;100.93;53.93;;;;;;;16.63;nan;98705.25;2097092;28;20539;-72
2021/07/13 03:41:34;;;;;;;94.63;53.90;;;;;;;16.62;nan;98698.31;2097172;28;20280;-72
2021/07/13 03:42:36;;;;;;;102.68;54.40;;;;;;;16.60;nan;98689.81;2097698;28;20260;-72
2021/07/13 03:43:37;;;;;;;94.95;53.40;;;;;;;16.60;nan;98695.97;2096452;28;20237;-72
2021/07/13 03:44:40;;;;;;;93.27;52.10;;;;;;;16.68;nan;98696.94;2096957;28;20309;-72
2021/07/13 03:45:41;;;;;;;87.47;50.40;;;;;;;16.69;nan;98695.84;2097799;28;20738;-71
2021/07/13 03:46:43;;;;;;;71.10;47.77;;;;;;;16.74;nan;98692.88;2097805;28;20876;-72
2021/07/13 03:47:48;;;;;;;75.57;50.03;;;;;;;16.83;nan;98692.72;2097751;28;20532;-72
2021/07/13 03:48:51;;;;;;;84.27;52.27;;;;;;;16.88;nan;98698.66;2097087;28;20437;-72
2021/07/13 03:49:53;;;;;;;74.27;49.47;;;;;;;16.85;nan;98691.25;2096543;28;20449;-72
2021/07/13 03:50:54;;;;;;;70.00;47.80;;;;;;;16.90;nan;98696.38;2096697;28;20962;-71
2021/07/13 03:51:55;;;;;;;70.93;47.05;;;;;;;16.97;nan;98703.88;2096883;28;20467;-72
2021/07/13 03:52:57;;;;;;;77.87;51.10;;;;;;;16.99;nan;98701.59;2096894;28;20234;-72
2021/07/13 03:53:57;;;;;;;85.57;50.83;;;;;;;16.99;nan;98700.81;2097487;28;20218;-72
2021/07/13 03:54:59;;;;;;;78.67;49.60;;;;;;;16.98;nan;98697.34;2096746;28;20893;-71
2021/07/13 03:56:00;;;;;;;71.30;49.50;;;;;;;16.93;nan;98698.38;2096916;28;20312;-72
2021/07/13 03:57:01;;;;;;;78.40;47.03;;;;;;;16.92;nan;98698.72;2097520;28;20433;-71
2021/07/13 03:58:02;;;;;;;73.17;48.30;;;;;;;16.93;nan;98698.38;2097680;28;20707;-72
2021/07/13 03:59:04;;;;;;;77.10;49.17;;;;;;;16.92;nan;98698.72;2097625;28;20795;-72
2021/07/13 04:00:08;;;;;;;79.53;49.70;;;;;;;16.89;nan;98697.50;2097576;28;20229;-71
2021/07/13 04:01:14;;;;;;;77.00;48.67;;;;;;;16.90;nan;98691.00;2097233;28;20225;-72
2021/07/13 04:02:14;;;;;;;76.70;49.73;;;;;;;16.93;nan;98694.91;2097647;28;20441;-71
2021/07/13 04:03:16;;;;;;;80.07;48.07;;;;;;;16.92;nan;98698.72;2097523;28;20531;-71
2021/07/13 04:04:18;;;;;;;76.30;48.73;;;;;;;16.93;nan;98692.97;2097532;28;20222;-72
2021/07/13 04:05:20;;;;;;;77.27;48.43;;;;;;;16.98;nan;98683.09;2097513;28;20448;-71
2021/07/13 04:06:21;;;;;;;76.93;48.30;;;;;;;16.99;nan;98693.53;2097641;28;20445;-72
2021/07/13 04:07:22;;;;;;;76.37;46.63;;;;;;;17.03;nan;98686.31;2097204;28;20456;-73
2021/07/13 04:08:23;;;;;;;77.80;48.43;;;;;;;17.07;nan;98697.19;2097437;28;20316;-72
2021/07/13 04:09:25;;;;;;;82.87;50.23;;;;;;;17.11;nan;98695.34;2097421;28;20516;-71
2021/07/13 04:10:25;;;;;;;72.83;50.20;;;;;;;17.11;nan;98696.13;2096772;28;20221;-71
2021/07/13 04:11:27;;;;;;;73.17;47.07;;;;;;;17.11;nan;98692.63;2096584;28;23550;-71
2021/07/13 04:12:28;;;;;;;72.80;48.37;;;;;;;17.12;nan;98688.84;2097369;28;20229;-71
2021/07/13 04:13:29;;;;;;;78.87;49.80;;;;;;;17.11;nan;98690.72;2097541;28;20468;-72
2021/07/13 04:14:30;;;;;;;72.73;49.00;;;;;;;17.14;nan;98698.13;2097433;28;20229;-71
2021/07/13 04:15:32;;;;;;;67.60;46.13;;;;;;;17.11;nan;98698.03;2097284;28;20443;-71
2021/07/13 04:16:33;;;;;;;70.23;47.50;;;;;;;17.14;nan;98692.75;2097342;28;20707;-71
2021/07/13 04:17:35;;;;;;;69.37;48.17;;;;;;;17.17;nan;98702.03;2097311;28;21006;-71
2021/07/13 04:18:36;;;;;;;65.43;45.90;;;;;;;17.22;nan;98705.28;2097078;28;20460;-71
2021/07/13 04:19:39;;;;;;;68.03;47.77;;;;;;;17.25;nan;98698.38;2097050;28;20472;-73
2021/07/13 04:20:40;;;;;;;71.03;48.53;;;;;;;17.24;nan;98700.31;2096681;28;20245;-71
2021/07/13 04:21:41;;;;;;;74.80;48.00;;;;;;;17.27;nan;98703.44;2096964;28;20531;-71
2021/07/13 04:22:43;;;;;;;69.90;47.97;;;;;;;17.28;nan;98705.00;2088313;28;20238;-71
2021/07/13 04:23:45;;;;;;;71.50;49.57;;;;;;;17.27;nan;98692.66;2096711;28;20444;-71
2021/07/13 04:24:46;;;;;;;70.17;49.37;;;;;;;17.25;nan;98695.69;2097302;28;20531;-71
2021/07/13 04:25:48;;;;;;;71.53;47.50;;;;;;;17.26;nan;98699.94;2097329;28;20453;-71
2021/07/13 04:26:49;;;;;;;64.73;45.80;;;;;;;17.27;nan;98698.03;2097214;28;20218;-71
2021/07/13 04:27:51;;;;;;;73.87;48.40;;;;;;;17.32;nan;98700.47;2096713;28;20461;-71
2021/07/13 04:28:51;;;;;;;70.93;49.30;;;;;;;17.34;nan;98693.59;2096224;28;20232;-73
2021/07/13 04:29:54;;;;;;;67.90;48.77;;;;;;;17.36;nan;98699.41;2096467;28;20488;-73
2021/07/13 04:30:55;;;;;;;70.23;48.97;;;;;;;17.38;nan;98701.78;2097317;28;20229;-72
2021/07/13 04:31:57;;;;;;;73.47;48.10;;;;;;;17.39;nan;98708.75;2097271;28;20457;-72
2021/07/13 04:32:57;;;;;;;61.83;44.67;;;;;;;17.40;nan;98703.00;2097184;28;20218;-71
2021/07/13 04:34:06;;;;;;;66.10;46.67;;;;;;;17.47;nan;98703.16;2096414;28;20472;-71
2021/07/13 04:35:09;;;;;;;72.17;45.37;;;;;;;17.56;nan;98705.69;2088747;28;20226;-72
2021/07/13 04:36:11;;;;;;;67.63;45.30;;;;;;;17.62;nan;98706.19;2096503;28;20492;-71
2021/07/13 04:37:12;;;;;;;69.93;46.53;;;;;;;17.63;nan;98702.34;2096659;28;20969;-71
2021/07/13 04:38:13;;;;;;;68.03;46.20;;;;;;;17.61;nan;98696.53;2096462;28;20832;-71
2021/07/13 04:39:14;;;;;;;60.67;44.70;;;;;;;17.61;nan;98689.22;2097239;28;20695;-71
2021/07/13 04:40:16;;;;;;;70.37;46.63;;;;;;;17.65;nan;98689.31;2096676;28;20813;-72
2021/07/13 04:41:17;;;;;;;63.17;45.80;;;;;;;17.66;nan;98671.97;2096554;28;20217;-71
2021/07/13 04:42:18;;;;;;;64.77;46.17;;;;;;;17.65;nan;98684.69;2096661;28;20476;-71
2021/07/13 04:43:19;;;;;;;69.63;46.27;;;;;;;17.62;nan;98676.50;2096509;28;20237;-71
2021/07/13 04:44:21;;;;;;;70.00;45.60;;;;;;;17.64;nan;98669.63;2096247;28;20492;-71
2021/07/13 04:45:22;;;;;;;65.27;46.10;;;;;;;17.67;nan;98676.22;2087758;28;20449;-72
2021/07/13 04:46:24;;;;;;;67.23;46.83;;;;;;;17.68;nan;98672.41;2096278;28;20531;-71
2021/07/13 04:47:24;;;;;;;61.57;44.73;;;;;;;17.76;nan;98674.94;2096495;28;20222;-71
2021/07/13 04:48:26;;;;;;;54.87;42.27;;;;;;;17.79;nan;98679.63;2097033;28;20524;-72
2021/07/13 04:49:31;;;;;;;63.77;44.77;;;;;;;17.89;nan;98678.28;2097246;28;20232;-71
2021/07/13 04:50:34;;;;;;;59.43;45.80;;;;;;;17.88;nan;98670.53;2097274;28;20436;-71
2021/07/13 04:51:35;;;;;;;58.20;43.00;;;;;;;17.89;nan;98667.47;2097235;28;20468;-71
2021/07/13 04:52:37;;;;;;;59.43;43.13;;;;;;;17.98;nan;98678.06;2096538;28;20536;-71
2021/07/13 04:53:37;;;;;;;57.00;43.43;;;;;;;17.99;nan;98674.25;2095996;28;20324;-73